Главная страница
METAR-TAF:

METAR-TAF

Аэропорты :

Яунде, Камерун

широта: 03-50N, долгота: 011-31E, высота над уровнем моря: 751 м

Текущие метеонаблюдения

Эта сводка был подготовлена 39 минут назад, в 03:00 UTC
Температура 21°C
Влажность 94%
Давление 1018 hPa
Видимость: 6000 м
Рассеянная облачность на высоте 600 фута

METAR: FKYS 150300Z /////KT 6000 BKN006 21/20 Q1018 NOSIG

Время: 04:39 (03:39 UTC)

Прогноз

Эта сводка был подготовлена 4 часа и 39 минут назад, в 23:00 UTC
Прогноз действительный с 15-го 00 UTC до 15-го 24 UTC
Ветер 3 Узел переменных направлений
Видимость 10 км и более
Рассеянная облачность на высоте 600 фута
изменения
С 15-го 08 UTC до 15-го 10 UTC
Рассеянная облачность на высоте 1600 фута
изменения
С 15-го 20 UTC до 15-го 22 UTC
Рассеянная облачность на высоте 600 фута

TAF: FKYS 142300Z 1500/1524 VRB03KT 9999 BKN006 BECMG 1508/1510 BKN016 BECMG 1520/1522 BKN006

Метеонаблюдения и прогнозы для более 4000 аэропортов (сводки METAR и TAF).

Имеющиеся станции представлены на карте желтыми и красными точками.

Чтобы увидеть название станции, наведите на нее мышь.

Затем щелкните, чтобы увидеть метеонаблюдения и метеопрогнозы.

Управление картой: чтобы увеличить масштаб, щелкните зеленые кнопки с черным крестиком; чтобы уменьшить масштаб, щелкните зеленую кнопку с тире; для просмотра соседних карт щелкайте зеленые стрелки.


METAR-TAF: